sensor_id;sensor_type;location;lat;lon;timestamp;temperature;humidity
10143;DHT22;5112;54.088;13.446;2022-11-13T00:03:36;12.20;99.90
10143;DHT22;5112;54.088;13.446;2022-11-13T00:13:39;12.10;99.90
10143;DHT22;5112;54.088;13.446;2022-11-13T00:23:42;12.20;99.90
10143;DHT22;5112;54.088;13.446;2022-11-13T00:33:45;12.00;99.90
10143;DHT22;5112;54.088;13.446;2022-11-13T00:43:47;12.00;99.90
10143;DHT22;5112;54.088;13.446;2022-11-13T00:53:50;11.90;99.90
10143;DHT22;5112;54.088;13.446;2022-11-13T01:03:52;11.90;99.90
10143;DHT22;5112;54.088;13.446;2022-11-13T01:13:55;11.80;99.90
10143;DHT22;5112;54.088;13.446;2022-11-13T01:23:57;11.80;99.90
10143;DHT22;5112;54.088;13.446;2022-11-13T01:34:00;11.80;99.90
10143;DHT22;5112;54.088;13.446;2022-11-13T01:44:02;11.80;99.90
10143;DHT22;5112;54.088;13.446;2022-11-13T01:54:08;11.80;99.90
10143;DHT22;5112;54.088;13.446;2022-11-13T02:04:11;11.70;99.90
10143;DHT22;5112;54.088;13.446;2022-11-13T02:14:15;11.70;99.90
10143;DHT22;5112;54.088;13.446;2022-11-13T02:24:23;11.70;99.90
10143;DHT22;5112;54.088;13.446;2022-11-13T02:34:26;11.70;99.90
10143;DHT22;5112;54.088;13.446;2022-11-13T02:44:29;11.70;99.90
10143;DHT22;5112;54.088;13.446;2022-11-13T02:54:30;11.70;99.90
10143;DHT22;5112;54.088;13.446;2022-11-13T03:04:33;11.70;99.90
10143;DHT22;5112;54.088;13.446;2022-11-13T03:14:35;11.70;99.90
10143;DHT22;5112;54.088;13.446;2022-11-13T03:24:39;11.70;99.90
10143;DHT22;5112;54.088;13.446;2022-11-13T03:34:41;11.70;99.90
10143;DHT22;5112;54.088;13.446;2022-11-13T03:44:44;11.70;99.90
10143;DHT22;5112;54.088;13.446;2022-11-13T03:54:46;11.70;99.90
10143;DHT22;5112;54.088;13.446;2022-11-13T04:04:49;11.60;99.90
10143;DHT22;5112;54.088;13.446;2022-11-13T04:14:51;11.50;99.90
10143;DHT22;5112;54.088;13.446;2022-11-13T04:24:54;11.50;99.90
10143;DHT22;5112;54.088;13.446;2022-11-13T04:34:55;11.50;99.90
10143;DHT22;5112;54.088;13.446;2022-11-13T04:44:58;11.50;99.90
10143;DHT22;5112;54.088;13.446;2022-11-13T04:55:00;11.50;99.90
10143;DHT22;5112;54.088;13.446;2022-11-13T05:05:04;11.50;99.90
10143;DHT22;5112;54.088;13.446;2022-11-13T05:15:07;11.40;99.90
10143;DHT22;5112;54.088;13.446;2022-11-13T05:25:10;11.30;99.90
10143;DHT22;5112;54.088;13.446;2022-11-13T05:35:11;11.30;99.90
10143;DHT22;5112;54.088;13.446;2022-11-13T05:45:14;11.30;99.90
10143;DHT22;5112;54.088;13.446;2022-11-13T05:55:16;11.30;99.90
10143;DHT22;5112;54.088;13.446;2022-11-13T06:05:19;11.20;99.90
10143;DHT22;5112;54.088;13.446;2022-11-13T06:15:21;11.20;99.90
10143;DHT22;5112;54.088;13.446;2022-11-13T06:25:24;11.20;99.90
10143;DHT22;5112;54.088;13.446;2022-11-13T06:35:26;11.10;99.90
10143;DHT22;5112;54.088;13.446;2022-11-13T06:45:29;11.00;99.90
10143;DHT22;5112;54.088;13.446;2022-11-13T06:55:30;11.00;99.90
10143;DHT22;5112;54.088;13.446;2022-11-13T07:05:36;11.00;99.90
10143;DHT22;5112;54.088;13.446;2022-11-13T07:15:38;11.00;99.90
10143;DHT22;5112;54.088;13.446;2022-11-13T07:25:41;11.00;99.90
10143;DHT22;5112;54.088;13.446;2022-11-13T07:35:43;10.90;99.90
10143;DHT22;5112;54.088;13.446;2022-11-13T07:45:46;10.90;99.90
10143;DHT22;5112;54.088;13.446;2022-11-13T07:55:53;10.90;99.90
10143;DHT22;5112;54.088;13.446;2022-11-13T08:06:00;10.90;99.90
10143;DHT22;5112;54.088;13.446;2022-11-13T08:16:02;11.00;99.90
10143;DHT22;5112;54.088;13.446;2022-11-13T08:26:06;11.10;99.90
10143;DHT22;5112;54.088;13.446;2022-11-13T08:36:08;11.20;99.90
10143;DHT22;5112;54.088;13.446;2022-11-13T08:46:12;11.30;99.90
10143;DHT22;5112;54.088;13.446;2022-11-13T08:56:13;11.40;99.90
10143;DHT22;5112;54.088;13.446;2022-11-13T09:06:16;11.60;99.90
10143;DHT22;5112;54.088;13.446;2022-11-13T09:16:18;11.80;99.90
10143;DHT22;5112;54.088;13.446;2022-11-13T09:26:21;11.90;99.90
10143;DHT22;5112;54.088;13.446;2022-11-13T09:36:23;11.90;99.90
10143;DHT22;5112;54.088;13.446;2022-11-13T09:46:35;11.90;99.90
10143;DHT22;5112;54.088;13.446;2022-11-13T09:56:39;11.90;99.90
10143;DHT22;5112;54.088;13.446;2022-11-13T10:06:55;12.10;99.90
10143;DHT22;5112;54.088;13.446;2022-11-13T10:17:14;12.10;99.90
10143;DHT22;5112;54.088;13.446;2022-11-13T10:27:21;12.10;99.90
10143;DHT22;5112;54.088;13.446;2022-11-13T10:37:36;12.00;99.90
10143;DHT22;5112;54.088;13.446;2022-11-13T10:47:46;12.00;99.90
10143;DHT22;5112;54.088;13.446;2022-11-13T10:57:54;12.10;99.90
10143;DHT22;5112;54.088;13.446;2022-11-13T11:07:58;12.20;99.90
10143;DHT22;5112;54.088;13.446;2022-11-13T11:18:02;12.10;99.90
10143;DHT22;5112;54.088;13.446;2022-11-13T11:28:11;12.10;99.90
10143;DHT22;5112;54.088;13.446;2022-11-13T11:38:18;12.20;99.90
10143;DHT22;5112;54.088;13.446;2022-11-13T11:48:26;12.30;99.90
10143;DHT22;5112;54.088;13.446;2022-11-13T11:58:42;12.20;99.90
10143;DHT22;5112;54.088;13.446;2022-11-13T12:08:58;12.10;99.90
10143;DHT22;5112;54.088;13.446;2022-11-13T12:19:05;12.10;99.90
10143;DHT22;5112;54.088;13.446;2022-11-13T12:29:29;12.10;99.90
10143;DHT22;5112;54.088;13.446;2022-11-13T12:39:39;11.90;99.90
10143;DHT22;5112;54.088;13.446;2022-11-13T12:49:44;11.90;99.90
10143;DHT22;5112;54.088;13.446;2022-11-13T12:59:48;11.90;99.90
10143;DHT22;5112;54.088;13.446;2022-11-13T13:09:59;11.80;99.90
10143;DHT22;5112;54.088;13.446;2022-11-13T13:20:28;11.80;99.90
10143;DHT22;5112;54.088;13.446;2022-11-13T13:30:35;11.80;99.90
10143;DHT22;5112;54.088;13.446;2022-11-13T13:40:55;11.70;99.90
10143;DHT22;5112;54.088;13.446;2022-11-13T13:51:03;11.50;99.90
10143;DHT22;5112;54.088;13.446;2022-11-13T14:01:14;11.60;99.90
10143;DHT22;5112;54.088;13.446;2022-11-13T14:11:27;11.60;99.90
10143;DHT22;5112;54.088;13.446;2022-11-13T14:21:29;11.50;99.90
10143;DHT22;5112;54.088;13.446;2022-11-13T14:31:33;11.40;99.90
10143;DHT22;5112;54.088;13.446;2022-11-13T14:41:39;11.50;99.90
10143;DHT22;5112;54.088;13.446;2022-11-13T14:51:53;11.40;99.90
10143;DHT22;5112;54.088;13.446;2022-11-13T15:01:56;11.40;99.90
10143;DHT22;5112;54.088;13.446;2022-11-13T15:11:59;11.40;99.90
10143;DHT22;5112;54.088;13.446;2022-11-13T15:22:01;11.30;99.90
10143;DHT22;5112;54.088;13.446;2022-11-13T15:32:07;11.50;99.90
10143;DHT22;5112;54.088;13.446;2022-11-13T15:42:12;11.40;99.90
10143;DHT22;5112;54.088;13.446;2022-11-13T15:52:17;11.30;99.90
10143;DHT22;5112;54.088;13.446;2022-11-13T16:02:19;11.30;99.90
10143;DHT22;5112;54.088;13.446;2022-11-13T16:12:22;11.40;99.90
10143;DHT22;5112;54.088;13.446;2022-11-13T16:22:25;11.30;99.90
10143;DHT22;5112;54.088;13.446;2022-11-13T16:32:28;11.30;99.90
10143;DHT22;5112;54.088;13.446;2022-11-13T16:42:30;11.20;99.90
10143;DHT22;5112;54.088;13.446;2022-11-13T16:52:33;11.10;99.90
10143;DHT22;5112;54.088;13.446;2022-11-13T17:02:35;11.20;99.90
10143;DHT22;5112;54.088;13.446;2022-11-13T17:12:38;11.10;99.90
10143;DHT22;5112;54.088;13.446;2022-11-13T17:22:39;11.00;99.90
10143;DHT22;5112;54.088;13.446;2022-11-13T17:32:48;11.10;99.90
10143;DHT22;5112;54.088;13.446;2022-11-13T17:42:50;11.00;99.90
10143;DHT22;5112;54.088;13.446;2022-11-13T17:52:53;11.00;99.90
10143;DHT22;5112;54.088;13.446;2022-11-13T18:02:55;11.00;99.90
10143;DHT22;5112;54.088;13.446;2022-11-13T18:12:58;10.90;99.90
10143;DHT22;5112;54.088;13.446;2022-11-13T18:23:00;10.80;99.90
10143;DHT22;5112;54.088;13.446;2022-11-13T18:33:03;10.90;99.90
10143;DHT22;5112;54.088;13.446;2022-11-13T18:43:05;10.80;99.90
10143;DHT22;5112;54.088;13.446;2022-11-13T18:53:08;10.80;99.90
10143;DHT22;5112;54.088;13.446;2022-11-13T19:03:10;10.70;99.90
10143;DHT22;5112;54.088;13.446;2022-11-13T19:13:13;10.70;99.90
10143;DHT22;5112;54.088;13.446;2022-11-13T19:23:15;10.70;99.90
10143;DHT22;5112;54.088;13.446;2022-11-13T19:33:18;10.70;99.90
10143;DHT22;5112;54.088;13.446;2022-11-13T19:43:19;10.70;99.90
10143;DHT22;5112;54.088;13.446;2022-11-13T19:53:22;10.70;99.90
10143;DHT22;5112;54.088;13.446;2022-11-13T20:03:25;10.70;99.90
10143;DHT22;5112;54.088;13.446;2022-11-13T20:13:30;10.90;99.90
10143;DHT22;5112;54.088;13.446;2022-11-13T20:23:32;10.80;99.90
10143;DHT22;5112;54.088;13.446;2022-11-13T20:33:36;10.70;99.90
10143;DHT22;5112;54.088;13.446;2022-11-13T20:43:38;10.70;99.90
10143;DHT22;5112;54.088;13.446;2022-11-13T20:53:41;10.80;99.90
10143;DHT22;5112;54.088;13.446;2022-11-13T21:03:44;10.80;99.90
10143;DHT22;5112;54.088;13.446;2022-11-13T21:13:48;10.70;99.90
10143;DHT22;5112;54.088;13.446;2022-11-13T21:23:51;10.60;99.90
10143;DHT22;5112;54.088;13.446;2022-11-13T21:33:56;10.70;99.90
10143;DHT22;5112;54.088;13.446;2022-11-13T21:44:00;10.80;99.90
10143;DHT22;5112;54.088;13.446;2022-11-13T21:54:04;10.70;99.90
10143;DHT22;5112;54.088;13.446;2022-11-13T22:04:06;10.80;99.90
10143;DHT22;5112;54.088;13.446;2022-11-13T22:14:09;10.80;99.90
10143;DHT22;5112;54.088;13.446;2022-11-13T22:24:12;10.80;99.90
10143;DHT22;5112;54.088;13.446;2022-11-13T22:34:16;10.80;99.90
10143;DHT22;5112;54.088;13.446;2022-11-13T22:44:18;10.80;99.90
10143;DHT22;5112;54.088;13.446;2022-11-13T22:54:21;10.70;99.90
10143;DHT22;5112;54.088;13.446;2022-11-13T23:04:23;10.70;99.90
10143;DHT22;5112;54.088;13.446;2022-11-13T23:14:26;10.70;99.90
10143;DHT22;5112;54.088;13.446;2022-11-13T23:24:27;10.70;99.90
10143;DHT22;5112;54.088;13.446;2022-11-13T23:34:30;10.60;99.90
10143;DHT22;5112;54.088;13.446;2022-11-13T23:44:32;10.50;99.90
10143;DHT22;5112;54.088;13.446;2022-11-13T23:54:35;10.30;99.90
